Time,TemperatureF,DewpointF,PressureIn,WindDirection,WindDirectionDegrees,WindSpeedMPH,WindSpeedGustMPH,Humidity,HourlyPrecipIn,Conditions,Clouds,dailyrainin,SoftwareType,DateUTC
2013-02-10 00:00:00,20.0,17.8,30.36,East,80,0.0,0.0,91,0.00,,,0.00,WUHU216DAVISVP2,2013-02-10 05:00:00,
2013-02-10 00:05:00,20.1,18.1,30.36,East,80,0.0,0.0,92,0.00,,,0.00,WUHU216DAVISVP2,2013-02-10 05:05:00,
2013-02-10 00:10:00,20.4,18.7,30.36,East,80,0.0,0.0,93,0.00,,,0.00,WUHU216DAVISVP2,2013-02-10 05:10:00,
2013-02-10 00:15:00,20.4,18.4,30.36,East,80,0.0,0.0,92,0.00,,,0.00,WUHU216DAVISVP2,2013-02-10 05:15:00,
2013-02-10 00:20:00,20.1,18.1,30.36,East,80,0.0,0.0,92,0.00,,,0.00,WUHU216DAVISVP2,2013-02-10 05:20:00,
2013-02-10 00:25:00,20.1,18.1,30.36,East,80,0.0,0.0,92,0.00,,,0.00,WUHU216DAVISVP2,2013-02-10 05:25:00,
2013-02-10 00:30:00,19.9,18.0,30.36,East,80,0.0,0.0,92,0.00,,,0.00,WUHU216DAVISVP2,2013-02-10 05:30:00,
2013-02-10 00:35:00,19.7,17.7,30.36,East,81,0.0,0.0,92,0.00,,,0.00,WUHU216DAVISVP2,2013-02-10 05:35:00,
2013-02-10 00:40:00,19.5,17.5,30.36,East,80,0.0,0.0,92,0.00,,,0.00,WUHU216DAVISVP2,2013-02-10 05:40:00,
2013-02-10 00:45:00,19.4,17.7,30.36,East,81,0.0,0.0,93,0.00,,,0.00,WUHU216DAVISVP2,2013-02-10 05:45:00,
2013-02-10 00:50:00,19.1,17.1,30.36,East,80,0.0,0.0,92,0.00,,,0.00,WUHU216DAVISVP2,2013-02-10 05:50:00,
2013-02-10 00:55:00,19.2,17.5,30.36,East,81,0.0,0.0,93,0.00,,,0.00,WUHU216DAVISVP2,2013-02-10 05:55:00,
2013-02-10 01:00:00,19.5,17.8,30.35,East,80,0.0,0.0,93,0.00,,,0.00,WUHU216DAVISVP2,2013-02-10 06:00:00,
2013-02-10 01:05:00,19.5,17.8,30.35,East,80,0.0,0.0,93,0.00,,,0.00,WUHU216DAVISVP2,2013-02-10 06:05:00,
2013-02-10 01:10:00,19.6,17.9,30.35,East,80,0.0,0.0,93,0.00,,,0.00,WUHU216DAVISVP2,2013-02-10 06:10:00,
2013-02-10 01:15:00,19.7,18.0,30.35,East,80,0.0,0.0,93,0.00,,,0.00,WUHU216DAVISVP2,2013-02-10 06:15:00,
2013-02-10 01:20:00,19.8,18.4,30.35,East,80,0.0,0.0,94,0.00,,,0.00,WUHU216DAVISVP2,2013-02-10 06:20:00,
2013-02-10 01:25:00,19.7,18.0,30.35,East,81,0.0,0.0,93,0.00,,,0.00,WUHU216DAVISVP2,2013-02-10 06:25:00,
2013-02-10 01:30:00,19.6,17.9,30.34,East,80,0.0,0.0,93,0.00,,,0.00,WUHU216DAVISVP2,2013-02-10 06:30:00,
2013-02-10 01:36:00,19.1,17.4,30.34,East,80,0.0,0.0,93,0.00,,,0.00,WUHU216DAVISVP2,2013-02-10 06:36:00,
2013-02-10 01:41:00,19.2,17.5,30.34,East,81,0.0,0.0,93,0.00,,,0.00,WUHU216DAVISVP2,2013-02-10 06:41:00,
2013-02-10 01:46:00,19.2,17.5,30.34,East,81,0.0,0.0,93,0.00,,,0.00,WUHU216DAVISVP2,2013-02-10 06:46:00,
2013-02-10 01:51:00,19.2,17.5,30.34,East,81,0.0,0.0,93,0.00,,,0.00,WUHU216DAVISVP2,2013-02-10 06:51:00,
2013-02-10 01:56:00,19.2,17.5,30.34,East,81,0.0,0.0,93,0.00,,,0.00,WUHU216DAVISVP2,2013-02-10 06:56:00,
2013-02-10 02:01:00,19.1,17.4,30.34,East,80,0.0,0.0,93,0.00,,,0.00,WUHU216DAVISVP2,2013-02-10 07:01:00,
2013-02-10 02:06:00,19.2,17.5,30.34,East,80,0.0,0.0,93,0.00,,,0.00,WUHU216DAVISVP2,2013-02-10 07:06:00,
2013-02-10 02:11:00,18.9,17.2,30.34,East,81,0.0,0.0,93,0.00,,,0.00,WUHU216DAVISVP2,2013-02-10 07:11:00,
2013-02-10 02:16:00,18.8,17.1,30.33,East,81,0.0,0.0,93,0.00,,,0.00,WUHU216DAVISVP2,2013-02-10 07:16:00,
2013-02-10 02:22:00,18.8,17.1,30.33,East,80,0.0,0.0,93,0.00,,,0.00,WUHU216DAVISVP2,2013-02-10 07:22:00,
2013-02-10 02:27:00,18.9,17.5,30.33,East,81,0.0,0.0,94,0.00,,,0.00,WUHU216DAVISVP2,2013-02-10 07:27:00,
2013-02-10 02:32:00,18.6,16.9,30.33,East,81,0.0,0.0,93,0.00,,,0.00,WUHU216DAVISVP2,2013-02-10 07:32:00,
2013-02-10 02:37:00,18.2,16.5,30.33,East,81,0.0,0.0,93,0.00,,,0.00,WUHU216DAVISVP2,2013-02-10 07:37:00,
2013-02-10 02:42:00,18.0,16.3,30.32,East,81,0.0,0.0,93,0.00,,,0.00,WUHU216DAVISVP2,2013-02-10 07:42:00,
2013-02-10 02:47:00,18.0,16.3,30.32,East,80,0.0,0.0,93,0.00,,,0.00,WUHU216DAVISVP2,2013-02-10 07:47:00,
2013-02-10 02:52:00,17.9,16.2,30.32,East,80,0.0,0.0,93,0.00,,,0.00,WUHU216DAVISVP2,2013-02-10 07:52:00,
2013-02-10 02:57:00,17.8,16.1,30.33,East,80,0.0,0.0,93,0.00,,,0.00,WUHU216DAVISVP2,2013-02-10 07:57:00,
2013-02-10 03:02:00,17.8,16.1,30.33,East,80,0.0,0.0,93,0.00,,,0.00,WUHU216DAVISVP2,2013-02-10 08:02:00,
2013-02-10 03:07:00,18.0,16.6,30.32,East,81,0.0,0.0,94,0.00,,,0.00,WUHU216DAVISVP2,2013-02-10 08:07:00,
2013-02-10 03:12:00,18.1,16.7,30.32,East,81,0.0,0.0,94,0.00,,,0.00,WUHU216DAVISVP2,2013-02-10 08:12:00,
2013-02-10 03:17:00,18.1,16.7,30.32,East,84,0.0,0.0,94,0.00,,,0.00,WUHU216DAVISVP2,2013-02-10 08:17:00,
2013-02-10 03:22:00,17.7,16.0,30.32,East,84,0.0,0.0,93,0.00,,,0.00,WUHU216DAVISVP2,2013-02-10 08:22:00,
2013-02-10 03:27:00,17.7,16.0,30.32,East,84,0.0,0.0,93,0.00,,,0.00,WUHU216DAVISVP2,2013-02-10 08:27:00,
2013-02-10 03:32:00,18.0,16.5,30.32,East,84,0.0,0.0,94,0.00,,,0.00,WUHU216DAVISVP2,2013-02-10 08:32:00,
2013-02-10 03:37:00,18.4,16.9,30.31,East,84,0.0,0.0,94,0.00,,,0.00,WUHU216DAVISVP2,2013-02-10 08:37:00,
2013-02-10 03:42:00,18.5,17.1,30.31,East,84,0.0,1.0,94,0.00,,,0.00,WUHU216DAVISVP2,2013-02-10 08:42:00,
2013-02-10 03:47:00,18.2,16.5,30.31,East,84,0.0,1.0,93,0.00,,,0.00,WUHU216DAVISVP2,2013-02-10 08:47:00,
2013-02-10 03:52:00,18.1,16.4,30.31,East,83,0.0,1.0,93,0.00,,,0.00,WUHU216DAVISVP2,2013-02-10 08:52:00,
2013-02-10 03:57:00,17.9,16.2,30.31,East,84,0.0,1.0,93,0.00,,,0.00,WUHU216DAVISVP2,2013-02-10 08:57:00,
2013-02-10 04:02:00,18.0,16.3,30.31,East,84,0.0,0.0,93,0.00,,,0.00,WUHU216DAVISVP2,2013-02-10 09:02:00,
2013-02-10 04:07:00,18.2,16.5,30.31,East,84,0.0,0.0,93,0.00,,,0.00,WUHU216DAVISVP2,2013-02-10 09:07:00,
2013-02-10 04:12:00,18.1,16.4,30.31,East,84,0.0,0.0,93,0.00,,,0.00,WUHU216DAVISVP2,2013-02-10 09:12:00,
2013-02-10 04:17:00,18.3,16.9,30.31,East,84,0.0,0.0,94,0.00,,,0.00,WUHU216DAVISVP2,2013-02-10 09:17:00,
2013-02-10 04:22:00,18.3,16.6,30.31,East,84,0.0,0.0,93,0.00,,,0.00,WUHU216DAVISVP2,2013-02-10 09:22:00,
2013-02-10 04:27:00,17.9,16.2,30.31,East,84,0.0,0.0,93,0.00,,,0.00,WUHU216DAVISVP2,2013-02-10 09:27:00,
2013-02-10 04:32:00,18.1,16.4,30.31,East,84,0.0,0.0,93,0.00,,,0.00,WUHU216DAVISVP2,2013-02-10 09:32:00,
2013-02-10 04:37:00,18.2,16.5,30.31,East,84,0.0,0.0,93,0.00,,,0.00,WUHU216DAVISVP2,2013-02-10 09:37:00,
2013-02-10 04:42:00,18.5,17.0,30.31,East,83,0.0,0.0,94,0.00,,,0.00,WUHU216DAVISVP2,2013-02-10 09:42:00,
2013-02-10 04:47:00,18.8,17.3,30.31,East,84,0.0,0.0,94,0.00,,,0.00,WUHU216DAVISVP2,2013-02-10 09:47:00,
2013-02-10 04:52:00,18.8,17.1,30.31,East,84,0.0,0.0,93,0.00,,,0.00,WUHU216DAVISVP2,2013-02-10 09:52:00,
2013-02-10 04:57:00,18.7,17.0,30.31,East,84,0.0,0.0,93,0.00,,,0.00,WUHU216DAVISVP2,2013-02-10 09:57:00,
2013-02-10 05:02:00,18.7,17.0,30.31,East,84,0.0,0.0,93,0.00,,,0.00,WUHU216DAVISVP2,2013-02-10 10:02:00,
2013-02-10 05:07:00,18.6,16.9,30.31,East,84,0.0,0.0,93,0.00,,,0.00,WUHU216DAVISVP2,2013-02-10 10:07:00,
2013-02-10 05:12:00,18.3,16.6,30.31,East,84,0.0,0.0,93,0.00,,,0.00,WUHU216DAVISVP2,2013-02-10 10:12:00,
2013-02-10 05:17:00,18.3,16.6,30.31,East,83,0.0,0.0,93,0.00,,,0.00,WUHU216DAVISVP2,2013-02-10 10:17:00,
2013-02-10 05:22:00,18.5,17.0,30.31,East,84,0.0,0.0,94,0.00,,,0.00,WUHU216DAVISVP2,2013-02-10 10:22:00,
2013-02-10 05:27:00,18.8,17.3,30.31,East,84,0.0,0.0,94,0.00,,,0.00,WUHU216DAVISVP2,2013-02-10 10:27:00,
2013-02-10 05:32:00,19.0,17.6,30.31,East,84,0.0,0.0,94,0.00,,,0.00,WUHU216DAVISVP2,2013-02-10 10:32:00,
2013-02-10 05:37:00,19.0,17.3,30.31,East,83,0.0,0.0,93,0.00,,,0.00,WUHU216DAVISVP2,2013-02-10 10:37:00,
2013-02-10 05:42:00,18.8,17.1,30.31,East,84,0.0,0.0,93,0.00,,,0.00,WUHU216DAVISVP2,2013-02-10 10:42:00,
2013-02-10 05:47:00,18.5,16.8,30.31,East,84,0.0,0.0,93,0.00,,,0.00,WUHU216DAVISVP2,2013-02-10 10:47:00,
2013-02-10 05:52:00,18.3,16.6,30.32,East,84,0.0,0.0,93,0.00,,,0.00,WUHU216DAVISVP2,2013-02-10 10:52:00,
2013-02-10 05:57:00,18.2,16.5,30.32,East,84,0.0,0.0,93,0.00,,,0.00,WUHU216DAVISVP2,2013-02-10 10:57:00,
2013-02-10 06:02:00,18.3,16.6,30.32,East,84,0.0,0.0,93,0.00,,,0.00,WUHU216DAVISVP2,2013-02-10 11:02:00,
2013-02-10 06:07:00,18.4,16.7,30.32,East,84,0.0,0.0,93,0.00,,,0.00,WUHU216DAVISVP2,2013-02-10 11:07:00,
2013-02-10 06:12:00,18.6,16.9,30.32,East,84,0.0,0.0,93,0.00,,,0.00,WUHU216DAVISVP2,2013-02-10 11:12:00,
2013-02-10 06:17:00,18.6,16.9,30.32,East,84,0.0,0.0,93,0.00,,,0.00,WUHU216DAVISVP2,2013-02-10 11:17:00,
2013-02-10 06:22:00,18.6,16.9,30.32,East,84,0.0,0.0,93,0.00,,,0.00,WUHU216DAVISVP2,2013-02-10 11:22:00,
2013-02-10 06:27:00,18.6,16.9,30.33,East,84,0.0,0.0,93,0.00,,,0.00,WUHU216DAVISVP2,2013-02-10 11:27:00,
2013-02-10 06:32:00,18.9,17.2,30.32,East,83,0.0,0.0,93,0.00,,,0.00,WUHU216DAVISVP2,2013-02-10 11:32:00,
2013-02-10 06:37:00,19.2,17.7,30.32,East,84,0.0,0.0,94,0.00,,,0.00,WUHU216DAVISVP2,2013-02-10 11:37:00,
2013-02-10 06:42:00,19.4,17.9,30.33,East,84,0.0,0.0,94,0.00,,,0.00,WUHU216DAVISVP2,2013-02-10 11:42:00,
2013-02-10 06:47:00,19.6,18.2,30.33,East,84,0.0,0.0,94,0.00,,,0.00,WUHU216DAVISVP2,2013-02-10 11:47:00,
2013-02-10 06:52:00,20.1,18.7,30.33,East,84,0.0,0.0,94,0.00,,,0.00,WUHU216DAVISVP2,2013-02-10 11:52:00,
2013-02-10 06:57:00,20.5,19.0,30.33,East,84,1.0,1.0,94,0.00,,,0.00,WUHU216DAVISVP2,2013-02-10 11:57:00,
2013-02-10 07:02:00,20.7,19.2,30.33,East,84,0.0,1.0,94,0.00,,,0.00,WUHU216DAVISVP2,2013-02-10 12:02:00,
2013-02-10 07:07:00,20.8,19.3,30.33,East,84,0.0,1.0,94,0.00,,,0.00,WUHU216DAVISVP2,2013-02-10 12:07:00,
2013-02-10 07:12:00,21.0,19.5,30.33,East,83,0.0,1.0,94,0.00,,,0.00,WUHU216DAVISVP2,2013-02-10 12:12:00,
2013-02-10 07:17:00,21.1,19.6,30.33,East,83,0.0,0.0,94,0.00,,,0.00,WUHU216DAVISVP2,2013-02-10 12:17:00,
2013-02-10 07:22:00,21.3,19.8,30.34,East,84,0.0,0.0,94,0.00,,,0.00,WUHU216DAVISVP2,2013-02-10 12:22:00,
2013-02-10 07:27:00,21.4,19.9,30.34,East,83,0.0,0.0,94,0.00,,,0.00,WUHU216DAVISVP2,2013-02-10 12:27:00,
2013-02-10 07:33:00,21.6,20.1,30.34,East,83,0.0,0.0,94,0.00,,,0.00,WUHU216DAVISVP2,2013-02-10 12:33:00,
2013-02-10 07:38:00,21.8,20.0,30.33,East,84,0.0,0.0,93,0.00,,,0.00,WUHU216DAVISVP2,2013-02-10 12:38:00,
2013-02-10 07:43:00,21.9,20.4,30.33,East,84,0.0,0.0,94,0.00,,,0.00,WUHU216DAVISVP2,2013-02-10 12:43:00,
2013-02-10 07:48:00,22.1,20.6,30.33,East,84,0.0,0.0,94,0.00,,,0.00,WUHU216DAVISVP2,2013-02-10 12:48:00,
2013-02-10 07:53:00,22.3,20.8,30.33,East,84,0.0,0.0,94,0.00,,,0.00,WUHU216DAVISVP2,2013-02-10 12:53:00,
2013-02-10 07:58:00,22.4,20.9,30.33,East,84,0.0,0.0,94,0.00,,,0.00,WUHU216DAVISVP2,2013-02-10 12:58:00,
2013-02-10 08:03:00,22.5,21.0,30.33,East,84,0.0,0.0,94,0.00,,,0.00,WUHU216DAVISVP2,2013-02-10 13:03:00,
2013-02-10 08:08:00,22.7,21.2,30.33,East,83,0.0,0.0,94,0.00,,,0.00,WUHU216DAVISVP2,2013-02-10 13:08:00,
2013-02-10 08:13:00,22.8,21.3,30.32,East,84,0.0,0.0,94,0.00,,,0.00,WUHU216DAVISVP2,2013-02-10 13:13:00,
2013-02-10 08:18:00,23.0,21.5,30.32,East,84,0.0,0.0,94,0.00,,,0.00,WUHU216DAVISVP2,2013-02-10 13:18:00,
2013-02-10 08:23:00,23.2,21.7,30.33,East,84,0.0,0.0,94,0.00,,,0.00,WUHU216DAVISVP2,2013-02-10 13:23:00,
2013-02-10 08:28:00,23.4,21.9,30.33,East,83,0.0,0.0,94,0.00,,,0.00,WUHU216DAVISVP2,2013-02-10 13:28:00,
2013-02-10 08:33:00,23.6,22.1,30.33,East,84,0.0,0.0,94,0.00,,,0.00,WUHU216DAVISVP2,2013-02-10 13:33:00,
2013-02-10 08:38:00,23.7,22.0,30.33,East,84,1.0,1.0,93,0.00,,,0.00,WUHU216DAVISVP2,2013-02-10 13:38:00,
2013-02-10 08:43:00,23.8,22.1,30.33,East,83,0.0,1.0,93,0.00,,,0.00,WUHU216DAVISVP2,2013-02-10 13:43:00,
2013-02-10 08:48:00,24.0,22.3,30.33,East,84,0.0,1.0,93,0.00,,,0.00,WUHU216DAVISVP2,2013-02-10 13:48:00,
2013-02-10 08:53:00,24.2,22.5,30.34,East,84,0.0,1.0,93,0.00,,,0.00,WUHU216DAVISVP2,2013-02-10 13:53:00,
2013-02-10 08:58:00,24.4,22.6,30.33,East,84,0.0,1.0,93,0.00,,,0.00,WUHU216DAVISVP2,2013-02-10 13:58:00,
2013-02-10 09:03:00,24.6,22.8,30.33,East,84,1.0,1.0,93,0.00,,,0.00,WUHU216DAVISVP2,2013-02-10 14:03:00,
2013-02-10 09:08:00,24.9,23.1,30.34,East,84,0.0,1.0,93,0.00,,,0.00,WUHU216DAVISVP2,2013-02-10 14:08:00,
2013-02-10 09:13:00,25.2,23.5,30.34,East,84,0.0,1.0,93,0.00,,,0.00,WUHU216DAVISVP2,2013-02-10 14:13:00,
2013-02-10 09:18:00,25.5,23.8,30.34,East,84,0.0,1.0,93,0.00,,,0.00,WUHU216DAVISVP2,2013-02-10 14:18:00,
2013-02-10 09:23:00,25.9,24.2,30.34,East,84,0.0,0.0,93,0.00,,,0.00,WUHU216DAVISVP2,2013-02-10 14:23:00,
2013-02-10 09:28:00,26.2,24.4,30.33,East,84,0.0,0.0,93,0.00,,,0.00,WUHU216DAVISVP2,2013-02-10 14:28:00,
2013-02-10 09:33:00,26.5,24.7,30.33,East,84,0.0,0.0,93,0.00,,,0.00,WUHU216DAVISVP2,2013-02-10 14:33:00,
2013-02-10 09:38:00,26.6,24.5,30.33,East,84,0.0,0.0,92,0.00,,,0.00,WUHU216DAVISVP2,2013-02-10 14:38:00,
2013-02-10 09:43:00,26.8,24.5,30.33,East,83,0.0,0.0,91,0.00,,,0.00,WUHU216DAVISVP2,2013-02-10 14:43:00,
2013-02-10 09:48:00,26.9,24.6,30.32,East,84,0.0,1.0,91,0.00,,,0.00,WUHU216DAVISVP2,2013-02-10 14:48:00,
2013-02-10 09:53:00,27.1,24.8,30.32,East,84,0.0,1.0,91,0.00,,,0.00,WUHU216DAVISVP2,2013-02-10 14:53:00,
2013-02-10 09:58:00,27.5,25.2,30.32,East,83,0.0,1.0,91,0.00,,,0.00,WUHU216DAVISVP2,2013-02-10 14:58:00,
2013-02-10 10:03:00,27.7,25.1,30.31,East,84,0.0,1.0,90,0.00,,,0.00,WUHU216DAVISVP2,2013-02-10 15:03:00,
2013-02-10 10:08:00,28.1,25.5,30.30,NNE,22,1.0,1.0,90,0.00,,,0.00,WUHU216DAVISVP2,2013-02-10 15:08:00,
2013-02-10 10:13:00,28.3,25.4,30.29,North,354,0.0,1.0,89,0.00,,,0.00,WUHU216DAVISVP2,2013-02-10 15:13:00,
2013-02-10 10:18:00,28.9,26.3,30.28,North,352,0.0,1.0,90,0.00,,,0.00,WUHU216DAVISVP2,2013-02-10 15:18:00,
2013-02-10 10:23:00,29.3,26.1,30.27,North,354,1.0,1.0,88,0.00,,,0.00,WUHU216DAVISVP2,2013-02-10 15:23:00,
2013-02-10 10:28:00,29.5,26.3,30.26,SW,228,1.0,1.0,88,0.00,,,0.00,WUHU216DAVISVP2,2013-02-10 15:28:00,
2013-02-10 10:33:00,30.1,26.9,30.28,WNW,294,2.0,3.0,88,0.00,,,0.00,WUHU216DAVISVP2,2013-02-10 15:33:00,
2013-02-10 10:38:00,30.7,26.4,30.28,South,187,1.0,3.0,84,0.00,,,0.00,WUHU216DAVISVP2,2013-02-10 15:38:00,
2013-02-10 10:43:00,31.3,27.0,30.27,SSE,153,0.0,3.0,84,0.00,,,0.00,WUHU216DAVISVP2,2013-02-10 15:43:00,
2013-02-10 10:48:00,31.8,27.2,30.26,NNE,30,1.0,3.0,83,0.00,,,0.00,WUHU216DAVISVP2,2013-02-10 15:48:00,
2013-02-10 10:53:00,32.0,27.4,30.27,WNW,297,1.0,2.0,83,0.00,,,0.00,WUHU216DAVISVP2,2013-02-10 15:53:00,
2013-02-10 10:58:00,32.5,27.9,30.27,West,259,1.0,2.0,83,0.00,,,0.00,WUHU216DAVISVP2,2013-02-10 15:58:00,
2013-02-10 11:03:00,32.9,27.4,30.27,West,272,1.0,2.0,80,0.00,,,0.00,WUHU216DAVISVP2,2013-02-10 16:03:00,
2013-02-10 11:08:00,33.3,28.4,30.27,West,273,1.0,2.0,82,0.00,,,0.00,WUHU216DAVISVP2,2013-02-10 16:08:00,
2013-02-10 11:13:00,34.1,28.6,30.27,SW,235,0.0,2.0,80,0.00,,,0.00,WUHU216DAVISVP2,2013-02-10 16:13:00,
2013-02-10 11:18:00,34.9,29.4,30.27,SW,235,0.0,2.0,80,0.00,,,0.00,WUHU216DAVISVP2,2013-02-10 16:18:00,
2013-02-10 11:23:00,35.5,29.0,30.27,West,267,1.0,1.0,77,0.00,,,0.00,WUHU216DAVISVP2,2013-02-10 16:23:00,
2013-02-10 11:28:00,36.3,29.5,30.26,West,271,1.0,1.0,76,0.00,,,0.00,WUHU216DAVISVP2,2013-02-10 16:28:00,
2013-02-10 11:33:00,36.8,29.7,30.25,West,271,1.0,1.0,75,0.00,,,0.00,WUHU216DAVISVP2,2013-02-10 16:33:00,
2013-02-10 11:38:00,37.2,30.1,30.26,WNW,285,1.2,2.0,75,0.00,,,0.00,WUHU216DAVISVP2,2013-02-10 16:38:00,
2013-02-10 11:49:00,38.2,30.7,30.26,WSW,256,1.4,3.0,74,0.00,,,0.00,WUHU216DAVISVP2,2013-02-10 16:49:00,
2013-02-10 11:54:00,38.7,30.5,30.26,WNW,291,1.3,3.0,72,0.00,,,0.00,WUHU216DAVISVP2,2013-02-10 16:54:00,
2013-02-10 11:59:00,38.9,30.4,30.25,WNW,302,1.0,2.0,71,0.00,,,0.00,WUHU216DAVISVP2,2013-02-10 16:59:00,
2013-02-10 12:04:00,39.8,31.9,30.25,North,350,1.0,2.0,73,0.00,,,0.00,WUHU216DAVISVP2,2013-02-10 17:04:00,
2013-02-10 12:09:00,41.4,32.4,30.25,SW,233,1.3,2.0,70,0.00,,,0.00,WUHU216DAVISVP2,2013-02-10 17:09:00,
2013-02-10 12:14:00,42.5,32.0,30.24,SW,224,1.0,2.0,66,0.00,,,0.00,WUHU216DAVISVP2,2013-02-10 17:14:00,
2013-02-10 12:19:00,43.9,32.2,30.23,SW,224,0.0,2.0,63,0.00,,,0.00,WUHU216DAVISVP2,2013-02-10 17:19:00,
2013-02-10 12:24:00,44.9,32.8,30.23,WSW,243,1.2,2.0,62,0.00,,,0.00,WUHU216DAVISVP2,2013-02-10 17:24:00,
2013-02-10 12:29:00,45.5,33.3,30.23,WSW,255,1.0,2.0,62,0.00,,,0.00,WUHU216DAVISVP2,2013-02-10 17:29:00,
2013-02-10 12:34:00,46.3,31.9,30.22,WSW,253,1.0,2.0,57,0.00,,,0.00,WUHU216DAVISVP2,2013-02-10 17:34:00,
2013-02-10 12:39:00,46.8,31.5,30.22,WSW,253,1.0,2.0,55,0.00,,,0.00,WUHU216DAVISVP2,2013-02-10 17:39:00,
2013-02-10 12:44:00,47.4,33.0,30.22,WNW,288,0.0,2.0,57,0.00,,,0.00,WUHU216DAVISVP2,2013-02-10 17:44:00,
2013-02-10 12:49:00,48.5,33.5,30.21,East,98,1.0,2.0,56,0.00,,,0.00,WUHU216DAVISVP2,2013-02-10 17:49:00,
2013-02-10 12:54:00,49.9,33.9,30.21,East,96,1.0,2.0,54,0.00,,,0.00,WUHU216DAVISVP2,2013-02-10 17:54:00,
2013-02-10 12:59:00,51.4,33.4,30.20,East,96,1.0,1.0,50,0.00,,,0.00,WUHU216DAVISVP2,2013-02-10 17:59:00,
2013-02-10 13:04:00,52.0,32.4,30.19,West,274,1.0,2.0,47,0.00,,,0.00,WUHU216DAVISVP2,2013-02-10 18:04:00,
2013-02-10 13:09:00,52.9,32.6,30.19,West,277,1.0,2.0,46,0.00,,,0.00,WUHU216DAVISVP2,2013-02-10 18:09:00,
2013-02-10 13:14:00,54.4,31.6,30.17,West,269,1.0,3.0,42,0.00,,,0.00,WUHU216DAVISVP2,2013-02-10 18:14:00,
2013-02-10 13:19:00,55.7,29.8,30.17,WSW,242,2.9,8.0,37,0.00,,,0.00,WUHU216DAVISVP2,2013-02-10 18:19:00,
2013-02-10 13:24:00,57.0,28.7,30.17,WSW,252,2.0,8.0,34,0.00,,,0.00,WUHU216DAVISVP2,2013-02-10 18:24:00,
2013-02-10 13:29:00,58.5,27.9,30.16,WNW,287,1.1,8.0,31,0.00,,,0.00,WUHU216DAVISVP2,2013-02-10 18:29:00,
2013-02-10 13:34:00,59.5,28.0,30.16,West,275,1.1,8.0,30,0.00,,,0.00,WUHU216DAVISVP2,2013-02-10 18:34:00,
2013-02-10 13:39:00,60.0,24.0,30.15,ENE,73,5.0,7.0,25,0.00,,,0.00,WUHU216DAVISVP2,2013-02-10 18:39:00,
2013-02-10 13:44:00,60.2,25.1,30.16,ENE,76,2.5,8.0,26,0.00,,,0.00,WUHU216DAVISVP2,2013-02-10 18:44:00,
2013-02-10 13:49:00,60.3,22.3,30.15,WSW,247,3.2,8.0,23,0.00,,,0.00,WUHU216DAVISVP2,2013-02-10 18:49:00,
2013-02-10 13:54:00,60.4,23.4,30.15,WSW,253,1.6,7.0,24,0.00,,,0.00,WUHU216DAVISVP2,2013-02-10 18:54:00,
2013-02-10 13:59:00,60.5,25.4,30.15,WSW,255,2.0,6.0,26,0.00,,,0.00,WUHU216DAVISVP2,2013-02-10 18:59:00,
2013-02-10 14:04:00,60.5,22.5,30.15,WNW,295,2.1,6.0,23,0.00,,,0.00,WUHU216DAVISVP2,2013-02-10 19:04:00,
2013-02-10 14:09:00,60.0,23.1,30.14,SW,234,2.4,6.0,24,0.00,,,0.00,WUHU216DAVISVP2,2013-02-10 19:09:00,
2013-02-10 14:15:00,59.5,23.5,30.14,NNE,32,1.2,5.0,25,0.00,,,0.00,WUHU216DAVISVP2,2013-02-10 19:15:00,
2013-02-10 14:19:00,59.2,23.2,30.14,SSW,210,4.0,5.0,25,0.00,,,0.00,WUHU216DAVISVP2,2013-02-10 19:19:00,
2013-02-10 14:25:00,58.8,22.9,30.14,West,277,1.3,5.0,25,0.00,,,0.00,WUHU216DAVISVP2,2013-02-10 19:25:00,
2013-02-10 14:30:00,58.6,21.8,30.13,SE,126,2.1,4.0,24,0.00,,,0.00,WUHU216DAVISVP2,2013-02-10 19:30:00,
2013-02-10 14:34:00,58.5,23.7,30.13,ESE,106,1.2,4.0,26,0.00,,,0.00,WUHU216DAVISVP2,2013-02-10 19:34:00,
2013-02-10 14:40:00,58.6,22.8,30.13,ESE,113,1.5,4.0,25,0.00,,,0.00,WUHU216DAVISVP2,2013-02-10 19:40:00,
2013-02-10 14:45:00,58.5,20.7,30.13,SE,143,3.0,6.0,23,0.00,,,0.00,WUHU216DAVISVP2,2013-02-10 19:45:00,
2013-02-10 14:50:00,58.5,21.7,30.12,ESE,115,4.0,6.0,24,0.00,,,0.00,WUHU216DAVISVP2,2013-02-10 19:50:00,
2013-02-10 14:55:00,58.7,22.8,30.11,ESE,123,2.3,6.0,25,0.00,,,0.00,WUHU216DAVISVP2,2013-02-10 19:55:00,
2013-02-10 15:00:00,58.5,20.7,30.11,ESE,112,4.9,10.0,23,0.00,,,0.00,WUHU216DAVISVP2,2013-02-10 20:00:00,
2013-02-10 15:05:00,58.2,20.4,30.10,ESE,112,3.5,10.0,23,0.00,,,0.00,WUHU216DAVISVP2,2013-02-10 20:05:00,
2013-02-10 15:10:00,58.2,21.4,30.10,WSW,243,5.0,9.0,24,0.00,,,0.00,WUHU216DAVISVP2,2013-02-10 20:10:00,
2013-02-10 15:15:00,58.7,23.7,30.10,ESE,117,1.4,9.0,26,0.00,,,0.00,WUHU216DAVISVP2,2013-02-10 20:15:00,
2013-02-10 15:20:00,59.0,22.1,30.10,East,96,3.7,8.0,24,0.00,,,0.00,WUHU216DAVISVP2,2013-02-10 20:20:00,
2013-02-10 15:25:00,58.9,22.0,30.10,NW,315,1.3,7.0,24,0.00,,,0.00,WUHU216DAVISVP2,2013-02-10 20:25:00,
2013-02-10 15:30:00,58.4,20.6,30.10,ESE,104,5.0,8.0,23,0.00,,,0.00,WUHU216DAVISVP2,2013-02-10 20:30:00,
2013-02-10 15:35:00,57.8,21.1,30.11,SE,125,3.2,11.0,24,0.00,,,0.00,WUHU216DAVISVP2,2013-02-10 20:35:00,
2013-02-10 15:40:00,57.6,21.9,30.11,SE,127,2.0,11.0,25,0.00,,,0.00,WUHU216DAVISVP2,2013-02-10 20:40:00,
2013-02-10 15:45:00,57.2,21.5,30.10,ESE,110,4.0,9.0,25,0.00,,,0.00,WUHU216DAVISVP2,2013-02-10 20:45:00,
2013-02-10 15:50:00,56.6,21.0,30.10,ESE,108,3.4,9.0,25,0.00,,,0.00,WUHU216DAVISVP2,2013-02-10 20:50:00,
2013-02-10 15:55:00,56.2,21.6,30.10,East,92,6.0,8.0,26,0.00,,,0.00,WUHU216DAVISVP2,2013-02-10 20:55:00,
2013-02-10 16:00:00,56.0,21.4,30.10,ESE,114,2.8,8.0,26,0.00,,,0.00,WUHU216DAVISVP2,2013-02-10 21:00:00,
2013-02-10 16:05:00,55.8,21.2,30.10,East,101,2.2,8.0,26,0.00,,,0.00,WUHU216DAVISVP2,2013-02-10 21:05:00,
2013-02-10 16:10:00,55.7,22.0,30.10,ESE,102,2.7,8.0,27,0.00,,,0.00,WUHU216DAVISVP2,2013-02-10 21:10:00,
2013-02-10 16:15:00,55.4,22.6,30.10,South,187,1.3,7.0,28,0.00,,,0.00,WUHU216DAVISVP2,2013-02-10 21:15:00,
2013-02-10 16:20:00,55.2,21.6,30.10,SE,144,2.9,7.0,27,0.00,,,0.00,WUHU216DAVISVP2,2013-02-10 21:20:00,
2013-02-10 16:25:00,55.0,22.3,30.10,ESE,115,1.6,7.0,28,0.00,,,0.00,WUHU216DAVISVP2,2013-02-10 21:25:00,
2013-02-10 16:30:00,54.9,22.2,30.10,West,261,1.9,7.0,28,0.00,,,0.00,WUHU216DAVISVP2,2013-02-10 21:30:00,
2013-02-10 16:35:00,54.7,21.2,30.10,SE,130,3.0,7.0,27,0.00,,,0.00,WUHU216DAVISVP2,2013-02-10 21:35:00,
2013-02-10 16:40:00,54.5,21.8,30.10,ESE,109,1.2,7.0,28,0.00,,,0.00,WUHU216DAVISVP2,2013-02-10 21:40:00,
2013-02-10 16:45:00,54.2,22.4,30.10,ESE,112,1.0,6.0,29,0.00,,,0.00,WUHU216DAVISVP2,2013-02-10 21:45:00,
2013-02-10 16:50:00,54.0,22.2,30.10,ESE,115,2.0,6.0,29,0.00,,,0.00,WUHU216DAVISVP2,2013-02-10 21:50:00,
2013-02-10 16:55:00,53.9,22.1,30.10,ESE,111,1.1,5.0,29,0.00,,,0.00,WUHU216DAVISVP2,2013-02-10 21:55:00,
2013-02-10 17:00:00,53.6,21.9,30.10,SE,126,1.4,5.0,29,0.00,,,0.00,WUHU216DAVISVP2,2013-02-10 22:00:00,
2013-02-10 17:05:00,53.5,24.1,30.10,SE,125,2.0,4.0,32,0.00,,,0.00,WUHU216DAVISVP2,2013-02-10 22:05:00,
2013-02-10 17:10:00,53.1,23.0,30.09,NE,51,1.3,4.0,31,0.00,,,0.00,WUHU216DAVISVP2,2013-02-10 22:10:00,
2013-02-10 17:15:00,52.7,24.4,30.09,East,81,1.4,3.0,33,0.00,,,0.00,WUHU216DAVISVP2,2013-02-10 22:15:00,
2013-02-10 17:20:00,52.4,24.8,30.09,East,96,1.2,3.0,34,0.00,,,0.00,WUHU216DAVISVP2,2013-02-10 22:20:00,
2013-02-10 17:25:00,52.1,24.3,30.09,NE,48,1.0,3.0,34,0.00,,,0.00,WUHU216DAVISVP2,2013-02-10 22:25:00,
2013-02-10 17:30:00,52.0,23.5,30.09,ESE,112,1.1,3.0,33,0.00,,,0.00,WUHU216DAVISVP2,2013-02-10 22:30:00,
2013-02-10 17:35:00,52.3,23.1,30.09,ESE,110,1.6,3.0,32,0.00,,,0.00,WUHU216DAVISVP2,2013-02-10 22:35:00,
2013-02-10 17:40:00,52.4,21.6,30.09,South,188,1.2,4.0,30,0.00,,,0.00,WUHU216DAVISVP2,2013-02-10 22:40:00,
2013-02-10 17:45:00,52.6,21.8,30.10,SSE,150,2.0,6.0,30,0.00,,,0.00,WUHU216DAVISVP2,2013-02-10 22:45:00,
2013-02-10 17:50:00,52.8,21.2,30.10,ESE,115,1.3,6.0,29,0.00,,,0.00,WUHU216DAVISVP2,2013-02-10 22:50:00,
2013-02-10 17:55:00,52.7,20.3,30.11,South,169,1.7,6.0,28,0.00,,,0.00,WUHU216DAVISVP2,2013-02-10 22:55:00,
2013-02-10 18:00:00,52.7,20.3,30.11,East,79,2.0,5.0,28,0.00,,,0.00,WUHU216DAVISVP2,2013-02-10 23:00:00,
2013-02-10 18:05:00,52.7,22.1,30.10,ESE,103,1.2,5.0,30,0.00,,,0.00,WUHU216DAVISVP2,2013-02-10 23:05:00,
2013-02-10 18:10:00,52.4,21.0,30.10,ESE,108,0.0,5.0,29,0.00,,,0.00,WUHU216DAVISVP2,2013-02-10 23:10:00,
2013-02-10 18:15:00,52.2,20.7,30.10,ESE,113,2.0,4.0,29,0.00,,,0.00,WUHU216DAVISVP2,2013-02-10 23:15:00,
2013-02-10 18:20:00,52.2,20.7,30.10,North,356,1.0,3.0,29,0.00,,,0.00,WUHU216DAVISVP2,2013-02-10 23:20:00,
2013-02-10 18:25:00,52.4,20.8,30.10,East,94,1.3,6.0,29,0.00,,,0.00,WUHU216DAVISVP2,2013-02-10 23:25:00,
2013-02-10 18:30:00,52.4,20.0,30.10,SSW,192,1.4,6.0,28,0.00,,,0.00,WUHU216DAVISVP2,2013-02-10 23:30:00,
2013-02-10 18:35:00,52.2,20.7,30.10,SE,143,1.0,5.0,29,0.00,,,0.00,WUHU216DAVISVP2,2013-02-10 23:35:00,
2013-02-10 18:40:00,52.1,20.6,30.11,ESE,121,2.0,5.0,29,0.00,,,0.00,WUHU216DAVISVP2,2013-02-10 23:40:00,
2013-02-10 18:45:00,52.1,20.6,30.11,ENE,76,2.0,7.0,29,0.00,,,0.00,WUHU216DAVISVP2,2013-02-10 23:45:00,
2013-02-10 18:50:00,52.0,19.9,30.11,ESE,122,1.8,7.0,28,0.00,,,0.00,WUHU216DAVISVP2,2013-02-10 23:50:00,
2013-02-10 18:55:00,52.2,19.9,30.11,SW,223,2.9,8.0,28,0.00,,,0.00,WUHU216DAVISVP2,2013-02-10 23:55:00,
2013-02-10 19:01:00,52.1,19.8,30.11,ESE,121,4.0,8.0,28,0.00,,,0.00,WUHU216DAVISVP2,2013-02-11 00:01:00,
2013-02-10 19:06:00,52.1,19.8,30.11,East,94,3.0,8.0,28,0.00,,,0.00,WUHU216DAVISVP2,2013-02-11 00:06:00,
2013-02-10 19:11:00,52.0,19.7,30.11,North,3,1.2,8.0,28,0.00,,,0.00,WUHU216DAVISVP2,2013-02-11 00:11:00,
2013-02-10 19:16:00,51.8,20.3,30.11,ESE,107,2.5,6.0,29,0.00,,,0.00,WUHU216DAVISVP2,2013-02-11 00:16:00,
2013-02-10 19:21:00,51.8,21.1,30.11,East,86,3.0,6.0,30,0.00,,,0.00,WUHU216DAVISVP2,2013-02-11 00:21:00,
2013-02-10 19:26:00,51.7,19.4,30.11,ESE,110,2.8,7.0,28,0.00,,,0.00,WUHU216DAVISVP2,2013-02-11 00:26:00,
2013-02-10 19:31:00,51.7,20.2,30.11,SE,129,3.1,7.0,29,0.00,,,0.00,WUHU216DAVISVP2,2013-02-11 00:31:00,
2013-02-10 19:35:00,51.7,19.4,30.11,ESE,123,1.7,6.0,28,0.00,,,0.00,WUHU216DAVISVP2,2013-02-11 00:35:00,
2013-02-10 19:40:00,51.6,19.3,30.10,East,92,3.0,7.0,28,0.00,,,0.00,WUHU216DAVISVP2,2013-02-11 00:40:00,
2013-02-10 19:45:00,51.5,19.2,30.10,East,100,2.4,7.0,28,0.00,,,0.00,WUHU216DAVISVP2,2013-02-11 00:45:00,
2013-02-10 19:51:00,51.6,20.1,30.10,SE,130,2.4,7.0,29,0.00,,,0.00,WUHU216DAVISVP2,2013-02-11 00:51:00,
2013-02-10 19:56:00,51.5,18.4,30.10,SE,125,3.3,8.0,27,0.00,,,0.00,WUHU216DAVISVP2,2013-02-11 00:56:00,
2013-02-10 20:01:00,51.6,18.5,30.10,ESE,114,4.0,8.0,27,0.00,,,0.00,WUHU216DAVISVP2,2013-02-11 01:01:00,
2013-02-10 20:06:00,51.6,19.3,30.09,SE,132,2.2,8.0,28,0.00,,,0.00,WUHU216DAVISVP2,2013-02-11 01:06:00,
2013-02-10 20:11:00,51.6,18.5,30.09,South,188,3.0,8.0,27,0.00,,,0.00,WUHU216DAVISVP2,2013-02-11 01:11:00,
2013-02-10 20:16:00,51.7,19.4,30.10,ESE,107,5.0,8.0,28,0.00,,,0.00,WUHU216DAVISVP2,2013-02-11 01:16:00,
2013-02-10 20:21:00,51.8,18.7,30.10,SW,228,3.4,8.0,27,0.00,,,0.00,WUHU216DAVISVP2,2013-02-11 01:21:00,
2013-02-10 20:26:00,51.8,18.7,30.10,SSW,208,4.0,8.0,27,0.00,,,0.00,WUHU216DAVISVP2,2013-02-11 01:26:00,
2013-02-10 20:31:00,51.8,18.7,30.10,SW,233,1.3,8.0,27,0.00,,,0.00,WUHU216DAVISVP2,2013-02-11 01:31:00,
2013-02-10 20:36:00,51.7,22.5,30.10,East,87,4.1,9.0,32,0.00,,,0.00,WUHU216DAVISVP2,2013-02-11 01:36:00,
2013-02-10 20:41:00,51.1,23.5,30.11,SSW,201,2.7,10.0,34,0.00,,,0.00,WUHU216DAVISVP2,2013-02-11 01:41:00,
2013-02-10 20:46:00,50.4,24.9,30.11,South,174,3.6,10.0,37,0.00,,,0.00,WUHU216DAVISVP2,2013-02-11 01:46:00,
2013-02-10 20:51:00,49.7,27.4,30.11,WNW,293,2.0,10.0,42,0.00,,,0.00,WUHU216DAVISVP2,2013-02-11 01:51:00,
2013-02-10 20:56:00,48.7,28.7,30.11,SE,125,1.0,9.0,46,0.00,,,0.00,WUHU216DAVISVP2,2013-02-11 01:56:00,
2013-02-10 21:01:00,48.0,27.5,30.11,ESE,111,1.0,9.0,45,0.00,,,0.00,WUHU216DAVISVP2,2013-02-11 02:01:00,
2013-02-10 21:06:00,46.6,34.0,30.11,East,86,2.0,5.0,61,0.01,,,0.01,WUHU216DAVISVP2,2013-02-11 02:06:00,
2013-02-10 21:11:00,46.0,33.0,30.10,East,86,1.0,3.0,60,0.01,,,0.01,WUHU216DAVISVP2,2013-02-11 02:11:00,
2013-02-10 21:16:00,45.3,34.7,30.09,East,84,1.0,3.0,66,0.02,,,0.02,WUHU216DAVISVP2,2013-02-11 02:16:00,
2013-02-10 21:21:00,44.4,36.0,30.09,East,84,2.0,3.0,72,0.02,,,0.02,WUHU216DAVISVP2,2013-02-11 02:21:00,
2013-02-10 21:26:00,43.1,34.8,30.09,NE,53,1.2,3.0,72,0.02,,,0.02,WUHU216DAVISVP2,2013-02-11 02:26:00,
2013-02-10 21:31:00,42.5,36.8,30.08,East,80,1.0,3.0,80,0.02,,,0.02,WUHU216DAVISVP2,2013-02-11 02:31:00,
2013-02-10 21:36:00,42.0,36.6,30.08,East,81,1.0,3.0,81,0.03,,,0.03,WUHU216DAVISVP2,2013-02-11 02:36:00,
2013-02-10 21:41:00,41.7,36.9,30.07,East,80,1.0,3.0,83,0.03,,,0.03,WUHU216DAVISVP2,2013-02-11 02:41:00,
2013-02-10 21:46:00,41.4,36.6,30.07,East,80,1.0,1.0,83,0.03,,,0.03,WUHU216DAVISVP2,2013-02-11 02:46:00,
2013-02-10 21:51:00,41.2,37.3,30.07,East,80,0.0,1.0,86,0.03,,,0.03,WUHU216DAVISVP2,2013-02-11 02:51:00,
2013-02-10 21:56:00,41.0,37.1,30.07,SE,134,1.0,1.0,86,0.03,,,0.03,WUHU216DAVISVP2,2013-02-11 02:56:00,
2013-02-10 22:01:00,41.0,37.4,30.07,SE,134,1.0,1.0,87,0.03,,,0.03,WUHU216DAVISVP2,2013-02-11 03:01:00,
2013-02-10 22:06:00,40.9,37.3,30.07,East,96,1.0,1.0,87,0.02,,,0.03,WUHU216DAVISVP2,2013-02-11 03:06:00,
2013-02-10 22:11:00,40.8,37.5,30.06,East,91,0.0,1.0,88,0.02,,,0.03,WUHU216DAVISVP2,2013-02-11 03:11:00,
2013-02-10 22:16:00,40.8,37.5,30.06,East,92,1.0,1.0,88,0.01,,,0.03,WUHU216DAVISVP2,2013-02-11 03:16:00,
2013-02-10 22:21:00,40.9,37.6,30.06,East,91,0.0,1.0,88,0.01,,,0.03,WUHU216DAVISVP2,2013-02-11 03:21:00,
2013-02-10 22:26:00,40.8,37.8,30.05,East,92,0.0,1.0,89,0.01,,,0.03,WUHU216DAVISVP2,2013-02-11 03:26:00,
2013-02-10 22:31:00,40.8,37.8,30.05,East,92,1.0,1.0,89,0.01,,,0.03,WUHU216DAVISVP2,2013-02-11 03:31:00,
2013-02-10 22:36:00,41.1,36.9,30.05,East,92,0.0,1.0,85,0.00,,,0.03,WUHU216DAVISVP2,2013-02-11 03:36:00,
2013-02-10 22:41:00,41.7,37.8,30.04,East,92,1.0,1.0,86,0.00,,,0.03,WUHU216DAVISVP2,2013-02-11 03:41:00,
2013-02-10 22:46:00,42.1,38.2,30.03,ESE,120,3.0,4.0,86,0.00,,,0.03,WUHU216DAVISVP2,2013-02-11 03:46:00,
2013-02-10 22:51:00,42.3,38.4,30.03,ENE,68,1.3,4.0,86,0.01,,,0.04,WUHU216DAVISVP2,2013-02-11 03:51:00,
2013-02-10 22:56:00,41.8,38.5,30.02,ENE,61,1.4,4.0,88,0.01,,,0.04,WUHU216DAVISVP2,2013-02-11 03:56:00,
2013-02-10 23:01:00,42.3,38.7,30.02,SW,226,1.1,4.0,87,0.01,,,0.04,WUHU216DAVISVP2,2013-02-11 04:01:00,
2013-02-10 23:06:00,42.3,39.3,30.02,East,98,1.0,3.0,89,0.01,,,0.04,WUHU216DAVISVP2,2013-02-11 04:06:00,
2013-02-10 23:11:00,42.2,39.2,30.01,East,84,2.0,3.0,89,0.01,,,0.04,WUHU216DAVISVP2,2013-02-11 04:11:00,
2013-02-10 23:16:00,42.0,39.2,30.01,East,84,1.0,3.0,90,0.01,,,0.04,WUHU216DAVISVP2,2013-02-11 04:16:00,
2013-02-10 23:21:00,42.1,39.6,30.00,ENE,68,2.0,3.0,91,0.01,,,0.04,WUHU216DAVISVP2,2013-02-11 04:21:00,
2013-02-10 23:26:00,42.1,39.6,30.00,ENE,66,1.0,3.0,91,0.01,,,0.04,WUHU216DAVISVP2,2013-02-11 04:26:00,
2013-02-10 23:31:00,42.2,39.8,29.99,ENE,70,1.5,3.0,91,0.01,,,0.04,WUHU216DAVISVP2,2013-02-11 04:31:00,
2013-02-10 23:36:00,42.2,39.7,29.98,ENE,59,1.0,3.0,91,0.01,,,0.04,WUHU216DAVISVP2,2013-02-11 04:36:00,
2013-02-10 23:41:00,42.1,39.9,29.98,ENE,60,1.0,2.0,92,0.01,,,0.04,WUHU216DAVISVP2,2013-02-11 04:41:00,
2013-02-10 23:46:00,42.2,39.7,29.98,South,172,2.0,2.0,91,0.01,,,0.04,WUHU216DAVISVP2,2013-02-11 04:46:00,
2013-02-10 23:51:00,42.9,40.1,29.98,ENE,74,2.3,4.0,90,0.00,,,0.04,WUHU216DAVISVP2,2013-02-11 04:51:00,
2013-02-10 23:56:00,43.1,40.3,29.97,NNE,25,1.8,4.0,90,0.00,,,0.04,WUHU216DAVISVP2,2013-02-11 04:56:00,